Time;durP1;ratioP1;P1;durP2;ratioP2;P2;SDS_P1;SDS_P2;PMS_P1;PMS_P2;Temp;Humidity;BMP_temperature;BMP_pressure;BME280_temperature;BME280_humidity;BME280_pressure;Samples;Min_cycle;Max_cycle;Signal;HPM_P1;HPM_P2
2024/02/11 00:00:55;;;;;;;19.20;14.03;;;8.00;99.90;;;;;;5118155;28;20459;-65
2024/02/11 00:03:27;;;;;;;15.10;13.50;;;8.00;99.90;;;;;;5117287;28;20519;-65
2024/02/11 00:05:55;;;;;;;15.30;11.90;;;7.80;99.90;;;;;;5117891;28;20839;-65
2024/02/11 00:08:23;;;;;;;15.33;11.83;;;7.80;99.90;;;;;;5117914;28;20531;-65
2024/02/11 00:10:52;;;;;;;14.20;11.60;;;7.70;99.90;;;;;;5117772;28;20462;-66
2024/02/11 00:13:20;;;;;;;13.77;11.53;;;7.70;99.90;;;;;;5117970;28;20844;-66
2024/02/11 00:15:48;;;;;;;11.53;10.33;;;7.70;99.90;;;;;;5118387;28;20504;-65
2024/02/11 00:18:17;;;;;;;12.67;11.37;;;7.80;99.90;;;;;;5117950;28;20453;-65
2024/02/11 00:20:48;;;;;;;13.10;11.20;;;7.80;99.90;;;;;;5118187;28;20455;-66
2024/02/11 00:23:15;;;;;;;11.80;10.60;;;7.70;99.90;;;;;;5117790;28;20492;-65
2024/02/11 00:25:43;;;;;;;13.37;11.90;;;7.70;99.90;;;;;;5117372;28;20483;-65
2024/02/11 00:28:10;;;;;;;15.00;13.40;;;7.70;99.90;;;;;;5117787;28;20471;-65
2024/02/11 00:30:38;;;;;;;14.97;13.40;;;7.70;99.90;;;;;;5118075;28;20749;-65
2024/02/11 00:33:06;;;;;;;16.67;12.97;;;7.80;99.90;;;;;;5117221;28;20455;-65
2024/02/11 00:35:34;;;;;;;15.70;13.63;;;7.80;99.90;;;;;;5117713;28;20455;-66
2024/02/11 00:38:02;;;;;;;15.37;13.77;;;7.80;99.90;;;;;;5118122;28;20904;-66
2024/02/11 00:40:30;;;;;;;16.77;15.00;;;7.80;99.90;;;;;;5117942;28;20828;-65
2024/02/11 00:42:58;;;;;;;15.33;13.73;;;7.80;99.90;;;;;;5121011;28;20499;-65
2024/02/11 00:45:29;;;;;;;14.63;13.13;;;7.70;99.90;;;;;;5121677;28;20868;-65
2024/02/11 00:47:56;;;;;;;14.73;13.00;;;7.70;99.90;;;;;;5121497;28;20880;-66
2024/02/11 00:50:23;;;;;;;12.90;11.60;;;7.80;99.90;;;;;;5121619;28;20804;-66
2024/02/11 00:52:50;;;;;;;14.23;12.07;;;7.70;99.90;;;;;;5121319;28;20455;-66
2024/02/11 00:55:21;;;;;;;13.53;12.13;;;7.80;99.90;;;;;;5121442;28;20550;-65
2024/02/11 00:57:48;;;;;;;13.80;12.33;;;7.80;99.90;;;;;;5121223;27;20460;-66
2024/02/11 01:00:17;;;;;;;12.23;10.93;;;7.80;99.90;;;;;;5120713;27;20487;-65
2024/02/11 01:02:44;;;;;;;13.57;12.20;;;7.80;99.90;;;;;;5121303;28;20781;-65
2024/02/11 01:05:11;;;;;;;14.40;12.90;;;7.80;99.90;;;;;;5121282;28;20903;-65
2024/02/11 01:07:40;;;;;;;14.57;12.40;;;7.80;99.90;;;;;;5121091;28;20867;-65
2024/02/11 01:10:10;;;;;;;14.23;12.30;;;7.80;99.90;;;;;;5120880;28;20559;-65
2024/02/11 01:12:40;;;;;;;13.13;11.77;;;7.90;99.90;;;;;;5121033;28;20451;-66
2024/02/11 01:15:10;;;;;;;13.10;11.67;;;7.80;99.90;;;;;;5121089;28;20884;-66
2024/02/11 01:17:38;;;;;;;13.77;12.00;;;7.80;99.90;;;;;;5120560;28;20466;-65
2024/02/11 01:20:08;;;;;;;14.60;13.10;;;7.90;99.90;;;;;;5121116;28;20491;-65
2024/02/11 01:22:35;;;;;;;14.70;13.20;;;7.90;99.90;;;;;;5121033;28;20491;-65
2024/02/11 01:25:03;;;;;;;15.63;13.87;;;7.90;99.90;;;;;;5120421;28;20466;-66
2024/02/11 01:27:30;;;;;;;15.33;12.17;;;7.90;99.90;;;;;;5121044;28;20835;-65
2024/02/11 01:29:59;;;;;;;15.33;13.70;;;7.90;99.90;;;;;;5120362;28;20460;-65
2024/02/11 01:32:26;;;;;;;17.37;13.60;;;7.90;99.90;;;;;;5120619;28;20773;-65
2024/02/11 01:34:53;;;;;;;15.37;13.83;;;7.90;99.90;;;;;;5120148;28;20463;-65
2024/02/11 01:37:21;;;;;;;15.13;12.10;;;7.90;99.90;;;;;;5120377;28;20456;-65
2024/02/11 01:39:48;;;;;;;11.97;10.77;;;7.90;99.90;;;;;;5120620;28;20460;-65
2024/02/11 01:42:15;;;;;;;12.80;11.10;;;7.90;99.90;;;;;;5120396;28;20550;-66
2024/02/11 01:44:42;;;;;;;12.57;11.27;;;8.00;99.90;;;;;;5120556;28;20452;-66
2024/02/11 01:47:11;;;;;;;13.43;11.80;;;7.90;99.90;;;;;;5120510;28;20797;-65
2024/02/11 01:49:39;;;;;;;12.57;10.67;;;8.10;99.90;;;;;;5120419;28;20884;-65
2024/02/11 01:52:07;;;;;;;10.93;9.93;;;8.10;99.90;;;;;;5119976;28;20456;-66
2024/02/11 01:54:37;;;;;;;11.20;10.10;;;8.10;99.90;;;;;;5120113;28;20794;-67
2024/02/11 01:57:05;;;;;;;14.80;10.43;;;8.00;99.90;;;;;;5120417;28;20989;-65
2024/02/11 01:59:36;;;;;;;9.00;7.97;;;8.10;99.90;;;;;;5119651;28;20459;-66
2024/02/11 02:02:09;;;;;;;10.20;8.30;;;8.10;99.90;;;;;;5120221;28;20463;-66
2024/02/11 02:04:38;;;;;;;7.97;7.17;;;8.10;99.90;;;;;;5119999;28;20490;-66
2024/02/11 02:07:06;;;;;;;9.00;7.00;;;8.20;99.90;;;;;;5119857;28;20504;-65
2024/02/11 02:09:33;;;;;;;8.50;6.80;;;8.30;99.90;;;;;;5119811;28;20546;-65
2024/02/11 02:12:04;;;;;;;7.50;6.47;;;8.40;99.90;;;;;;5119694;28;20480;-65
2024/02/11 02:14:32;;;;;;;8.67;6.90;;;8.40;99.90;;;;;;5120092;28;20958;-65
2024/02/11 02:16:59;;;;;;;11.33;7.30;;;8.40;99.90;;;;;;5119170;28;20479;-65
2024/02/11 02:19:27;;;;;;;8.47;7.60;;;8.50;99.90;;;;;;5119423;28;20487;-65
2024/02/11 02:21:56;;;;;;;8.83;6.60;;;8.50;99.90;;;;;;5119112;28;20558;-66
2024/02/11 02:24:24;;;;;;;7.40;6.70;;;8.60;99.90;;;;;;5119553;28;20523;-65
2024/02/11 02:26:51;;;;;;;7.60;6.43;;;8.50;99.90;;;;;;5118910;28;20487;-65
2024/02/11 02:29:18;;;;;;;7.00;5.93;;;8.50;99.90;;;;;;5119581;28;20512;-65
2024/02/11 02:31:46;;;;;;;6.43;5.70;;;8.60;99.90;;;;;;5118935;28;20456;-65
2024/02/11 02:34:13;;;;;;;6.77;5.80;;;8.70;99.90;;;;;;5119440;28;20457;-65
2024/02/11 02:36:41;;;;;;;6.87;5.70;;;8.60;99.90;;;;;;5118599;28;20981;-66
2024/02/11 02:39:12;;;;;;;7.00;6.30;;;8.60;99.90;;;;;;5118925;28;20466;-65
2024/02/11 02:41:40;;;;;;;8.17;6.50;;;8.60;99.90;;;;;;5117963;28;20469;-64
2024/02/11 02:44:07;;;;;;;8.90;5.70;;;8.60;99.90;;;;;;5117749;28;20487;-66
2024/02/11 02:46:35;;;;;;;6.50;5.90;;;8.60;99.90;;;;;;5118773;28;20546;-65
2024/02/11 02:49:02;;;;;;;8.40;6.47;;;8.50;99.90;;;;;;5118618;28;20456;-64
2024/02/11 02:51:29;;;;;;;7.63;6.67;;;8.60;99.90;;;;;;5118561;28;20508;-66
2024/02/11 02:53:56;;;;;;;6.40;5.80;;;8.50;99.90;;;;;;5116339;28;20500;-65
2024/02/11 02:56:27;;;;;;;7.73;6.30;;;8.50;99.90;;;;;;5097832;28;20913;-66
2024/02/11 02:58:54;;;;;;;7.63;6.87;;;8.50;99.90;;;;;;5096816;28;20885;-65
2024/02/11 03:01:26;;;;;;;6.47;5.87;;;8.50;99.90;;;;;;5096660;28;20460;-65
2024/02/11 03:03:53;;;;;;;7.57;6.13;;;8.40;99.90;;;;;;5096320;28;20492;-65
2024/02/11 03:06:21;;;;;;;6.70;6.00;;;8.30;99.90;;;;;;5096433;28;20499;-65
2024/02/11 03:08:50;;;;;;;9.30;6.47;;;8.30;99.90;;;;;;5096510;28;20492;-65
2024/02/11 03:11:17;;;;;;;6.60;5.80;;;8.30;99.90;;;;;;5096937;28;20438;-66
2024/02/11 03:13:46;;;;;;;7.50;6.40;;;8.40;99.90;;;;;;5098201;28;20938;-65
2024/02/11 03:16:15;;;;;;;8.43;6.30;;;8.50;99.90;;;;;;5098180;28;20881;-65
2024/02/11 03:18:42;;;;;;;8.67;7.67;;;8.50;99.90;;;;;;5098349;28;20461;-66
2024/02/11 03:21:10;;;;;;;8.20;7.10;;;8.60;99.90;;;;;;5097721;28;20514;-65
2024/02/11 03:23:37;;;;;;;7.40;6.57;;;8.70;99.90;;;;;;5098097;28;20947;-65
2024/02/11 03:26:09;;;;;;;8.53;7.27;;;8.70;99.90;;;;;;5097870;28;20480;-65
2024/02/11 03:28:37;;;;;;;7.73;6.90;;;8.70;99.90;;;;;;5098388;28;20468;-65
2024/02/11 03:31:07;;;;;;;8.07;7.27;;;8.70;99.90;;;;;;5098106;28;20551;-65
2024/02/11 03:33:35;;;;;;;11.30;8.10;;;8.70;99.90;;;;;;5097961;28;20457;-65
2024/02/11 03:36:02;;;;;;;8.23;7.37;;;8.70;99.90;;;;;;5097983;28;20558;-66
2024/02/11 03:38:29;;;;;;;7.80;7.00;;;8.80;99.90;;;;;;5097774;28;20535;-65
2024/02/11 03:40:57;;;;;;;10.00;8.00;;;8.90;99.90;;;;;;5097331;28;20913;-65
2024/02/11 03:43:26;;;;;;;10.10;8.00;;;8.90;99.90;;;;;;5097373;28;20586;-65
2024/02/11 03:45:53;;;;;;;10.00;8.30;;;9.00;99.90;;;;;;5098047;28;20950;-65
2024/02/11 03:48:22;;;;;;;9.70;8.20;;;9.10;99.90;;;;;;5098295;28;20555;-65
2024/02/11 03:50:49;;;;;;;9.20;7.73;;;9.10;99.90;;;;;;5097672;28;20463;-65
2024/02/11 03:53:21;;;;;;;9.00;7.70;;;9.10;99.90;;;;;;5097523;28;20827;-65
2024/02/11 03:55:48;;;;;;;8.67;7.20;;;9.10;99.90;;;;;;5097523;28;20460;-65
2024/02/11 03:58:16;;;;;;;8.77;7.90;;;9.10;99.90;;;;;;5096976;28;20792;-65
2024/02/11 04:00:44;;;;;;;10.00;8.00;;;9.10;99.90;;;;;;5097987;28;20502;-65
2024/02/11 04:03:16;;;;;;;9.63;8.27;;;9.20;99.90;;;;;;5097419;28;20460;-64
2024/02/11 04:05:45;;;;;;;9.07;8.13;;;9.20;99.90;;;;;;5097802;28;20456;-64
2024/02/11 04:08:12;;;;;;;10.63;7.80;;;9.30;99.90;;;;;;5097829;28;20521;-65
2024/02/11 04:10:40;;;;;;;11.00;8.00;;;9.20;99.90;;;;;;5097959;28;20744;-65
2024/02/11 04:13:09;;;;;;;11.03;8.10;;;9.20;99.90;;;;;;5097543;28;20456;-64
2024/02/11 04:15:38;;;;;;;8.17;7.37;;;9.20;99.90;;;;;;5098363;28;20452;-64
2024/02/11 04:18:10;;;;;;;8.67;7.77;;;9.20;99.90;;;;;;5101468;28;20456;-65
2024/02/11 04:20:37;;;;;;;9.13;8.20;;;9.30;99.90;;;;;;5101854;28;20539;-65
2024/02/11 04:23:07;;;;;;;8.87;7.60;;;9.30;99.90;;;;;;5101171;28;20905;-65
2024/02/11 04:25:36;;;;;;;9.17;8.20;;;9.30;99.90;;;;;;5101103;28;20488;-64
2024/02/11 04:28:07;;;;;;;11.67;8.40;;;9.30;99.90;;;;;;5101736;28;20878;-65
2024/02/11 04:30:37;;;;;;;10.50;8.37;;;9.30;99.90;;;;;;5101812;28;20503;-64
2024/02/11 04:33:04;;;;;;;9.97;7.70;;;9.30;99.90;;;;;;5100824;28;20500;-64
2024/02/11 04:35:33;;;;;;;9.80;8.07;;;9.30;99.90;;;;;;5101702;28;20508;-64
2024/02/11 04:38:07;;;;;;;9.33;7.93;;;9.30;99.90;;;;;;5101020;28;20517;-64
2024/02/11 04:40:36;;;;;;;9.33;7.70;;;9.30;99.90;;;;;;5101451;28;20466;-64
2024/02/11 04:43:03;;;;;;;8.80;7.90;;;9.30;99.90;;;;;;5100717;28;20815;-65
2024/02/11 04:45:31;;;;;;;8.67;7.77;;;9.30;99.90;;;;;;5100724;28;20498;-64
2024/02/11 04:47:59;;;;;;;9.63;8.40;;;9.20;99.90;;;;;;5101035;28;20800;-64
2024/02/11 04:50:28;;;;;;;11.97;8.70;;;9.20;99.90;;;;;;5101055;28;20468;-64
2024/02/11 04:52:56;;;;;;;10.40;8.50;;;9.30;99.90;;;;;;5100591;28;20467;-64
2024/02/11 04:55:27;;;;;;;10.20;8.73;;;9.30;99.90;;;;;;5100633;28;20438;-64
2024/02/11 04:57:58;;;;;;;11.70;8.33;;;9.30;99.90;;;;;;5100669;28;20544;-64
2024/02/11 05:00:25;;;;;;;9.80;8.80;;;9.30;99.90;;;;;;5100964;28;20560;-64
2024/02/11 05:02:53;;;;;;;10.67;9.57;;;9.30;99.90;;;;;;5100208;28;20469;-65
2024/02/11 05:05:25;;;;;;;12.93;9.40;;;9.30;99.90;;;;;;5100373;28;20970;-64
2024/02/11 05:07:53;;;;;;;11.53;10.27;;;9.30;99.90;;;;;;5100786;28;20460;-64
2024/02/11 05:10:22;;;;;;;12.53;10.93;;;9.40;99.90;;;;;;5100592;28;20748;-65
2024/02/11 05:12:49;;;;;;;13.03;10.97;;;9.30;99.90;;;;;;5100538;28;20881;-64
2024/02/11 05:15:20;;;;;;;10.80;9.70;;;9.30;99.90;;;;;;5100379;28;20487;-65
2024/02/11 05:17:50;;;;;;;13.13;10.30;;;9.30;99.90;;;;;;5100702;28;20710;-64
2024/02/11 05:20:27;;;;;;;11.70;10.50;;;9.30;99.90;;;;;;5100579;28;20471;-64
2024/02/11 05:22:56;;;;;;;11.20;10.10;;;9.30;99.90;;;;;;5099927;28;20488;-64
2024/02/11 05:25:25;;;;;;;12.17;10.97;;;9.40;99.90;;;;;;5099563;28;20546;-64
2024/02/11 05:27:57;;;;;;;11.37;9.53;;;9.40;99.90;;;;;;5098984;28;20479;-65
2024/02/11 05:30:26;;;;;;;11.73;10.33;;;9.40;99.90;;;;;;5099682;28;20456;-64
2024/02/11 05:32:54;;;;;;;10.80;9.70;;;9.50;99.90;;;;;;5099840;28;20463;-65
2024/02/11 05:35:23;;;;;;;13.00;9.70;;;9.40;99.90;;;;;;5100288;28;20564;-64
2024/02/11 05:37:57;;;;;;;11.60;9.80;;;9.40;99.90;;;;;;5099821;28;20461;-64
2024/02/11 05:40:26;;;;;;;12.13;10.97;;;9.50;99.90;;;;;;5100182;28;20881;-65
2024/02/11 05:42:53;;;;;;;11.93;10.70;;;9.50;99.90;;;;;;5100126;28;20525;-64
2024/02/11 05:45:21;;;;;;;12.37;11.07;;;9.50;99.90;;;;;;5099502;28;20495;-64
2024/02/11 05:47:50;;;;;;;13.30;11.63;;;9.50;99.90;;;;;;5100212;28;20460;-65
2024/02/11 05:50:18;;;;;;;13.00;10.03;;;9.60;99.90;;;;;;5099949;28;20470;-64
2024/02/11 05:52:47;;;;;;;11.53;10.33;;;9.60;99.90;;;;;;5099495;28;20530;-65
2024/02/11 05:55:16;;;;;;;13.37;10.60;;;9.60;99.90;;;;;;5099584;28;20534;-64
2024/02/11 05:57:44;;;;;;;14.33;8.63;;;9.60;99.90;;;;;;5099726;28;20559;-64
2024/02/11 06:00:14;;;;;;;12.53;9.90;;;9.60;99.90;;;;;;5099743;28;20461;-64
2024/02/11 06:02:42;;;;;;;11.77;10.30;;;9.60;99.90;;;;;;5100128;28;20460;-66
2024/02/11 06:05:12;;;;;;;8.77;7.77;;;9.60;99.90;;;;;;5099659;28;20830;-64
2024/02/11 06:07:40;;;;;;;11.57;8.60;;;9.60;99.90;;;;;;5099428;28;20882;-66
2024/02/11 06:10:11;;;;;;;9.20;8.00;;;9.60;99.90;;;;;;5099312;28;20514;-65
2024/02/11 06:12:39;;;;;;;10.13;7.60;;;9.60;99.90;;;;;;5099574;28;20802;-64
2024/02/11 06:15:08;;;;;;;11.97;7.70;;;9.60;99.90;;;;;;5098907;28;20488;-65
2024/02/11 06:17:36;;;;;;;7.87;7.10;;;9.60;99.90;;;;;;5098991;28;20461;-63
2024/02/11 06:20:06;;;;;;;9.20;7.33;;;9.50;99.90;;;;;;5099030;28;20463;-64
2024/02/11 06:22:35;;;;;;;7.77;7.00;;;9.50;99.90;;;;;;5099200;28;20460;-66
2024/02/11 06:25:03;;;;;;;4.30;3.83;;;9.50;99.90;;;;;;5098403;28;20503;-64
2024/02/11 06:27:30;;;;;;;4.60;3.70;;;9.40;99.90;;;;;;5099057;28;20521;-64
2024/02/11 06:29:57;;;;;;;3.10;2.60;;;9.20;99.90;;;;;;5099343;28;20559;-64
2024/02/11 06:32:24;;;;;;;4.13;2.30;;;9.10;99.90;;;;;;5098828;28;20757;-65
2024/02/11 06:34:52;;;;;;;5.03;2.60;;;8.90;99.90;;;;;;5098538;28;20465;-65
2024/02/11 06:37:20;;;;;;;3.10;2.03;;;8.80;99.90;;;;;;5098585;28;20460;-65
2024/02/11 06:39:49;;;;;;;3.43;2.20;;;8.70;99.90;;;;;;5099370;28;20461;-65
2024/02/11 06:42:16;;;;;;;4.60;2.63;;;8.50;99.90;;;;;;5099765;28;20895;-66
2024/02/11 06:44:43;;;;;;;4.57;3.00;;;8.30;99.90;;;;;;5099652;28;20743;-67
2024/02/11 06:47:11;;;;;;;5.40;3.40;;;8.10;99.90;;;;;;5098827;28;20491;-66
2024/02/11 06:49:39;;;;;;;4.20;3.33;;;7.90;99.90;;;;;;5099023;28;20471;-64
2024/02/11 06:52:09;;;;;;;6.17;3.70;;;7.80;99.90;;;;;;5099081;28;20463;-66
2024/02/11 06:54:37;;;;;;;6.10;3.90;;;7.80;99.90;;;;;;5099085;28;20882;-64
2024/02/11 06:57:07;;;;;;;7.03;4.00;;;7.60;99.90;;;;;;5099045;28;20466;-70
2024/02/11 06:59:34;;;;;;;8.93;5.03;;;7.60;99.90;;;;;;5098786;28;20506;-65
2024/02/11 07:02:04;;;;;;;5.67;4.60;;;7.60;99.90;;;;;;5098700;28;20431;-67
2024/02/11 07:04:33;;;;;;;8.20;4.80;;;7.50;99.90;;;;;;5098532;28;20488;-66
2024/02/11 07:07:02;;;;;;;7.27;4.20;;;7.40;99.90;;;;;;5098485;28;20487;-65
2024/02/11 07:09:29;;;;;;;10.03;4.70;;;7.40;99.90;;;;;;5098590;28;20460;-64
2024/02/11 07:11:56;;;;;;;11.20;4.63;;;7.40;99.90;;;;;;5098755;28;20439;-64
2024/02/11 07:14:26;;;;;;;8.83;5.03;;;7.40;99.90;;;;;;5098106;28;20455;-64
2024/02/11 07:16:54;;;;;;;9.40;5.03;;;7.40;99.90;;;;;;5098077;28;20525;-63
2024/02/11 07:19:24;;;;;;;8.80;4.13;;;7.40;99.90;;;;;;5097785;28;20461;-64
2024/02/11 07:21:52;;;;;;;8.57;4.50;;;7.40;99.90;;;;;;5097845;28;20464;-63
2024/02/11 07:24:19;;;;;;;11.27;4.27;;;7.40;99.90;;;;;;5097541;28;20503;-63
2024/02/11 07:26:48;;;;;;;10.63;4.40;;;7.50;99.90;;;;;;5097443;28;20797;-64
2024/02/11 07:29:15;;;;;;;12.50;4.90;;;7.50;99.90;;;;;;5097485;28;20456;-63
2024/02/11 07:31:44;;;;;;;9.57;4.50;;;7.50;99.90;;;;;;5097796;28;20939;-64
2024/02/11 07:34:11;;;;;;;11.27;5.00;;;7.40;99.90;;;;;;5098244;28;20535;-64
2024/02/11 07:36:40;;;;;;;9.20;4.30;;;7.50;99.90;;;;;;5097719;28;20488;-63
2024/02/11 07:39:08;;;;;;;7.93;4.27;;;7.50;99.90;;;;;;5097618;28;20460;-63
2024/02/11 07:41:36;;;;;;;7.27;3.93;;;7.50;99.90;;;;;;5097673;28;20542;-63
2024/02/11 07:44:03;;;;;;;8.40;4.00;;;7.60;99.90;;;;;;5097757;28;20434;-63
2024/02/11 07:46:31;;;;;;;9.83;4.97;;;7.60;99.90;;;;;;5098149;28;20452;-64
2024/02/11 07:49:03;;;;;;;10.20;4.43;;;7.60;99.90;;;;;;5097137;28;20456;-63
2024/02/11 07:51:30;;;;;;;10.07;5.40;;;7.60;99.90;;;;;;5097103;28;20456;-64
2024/02/11 07:53:58;;;;;;;8.87;4.60;;;7.60;99.90;;;;;;5097806;28;20721;-64
2024/02/11 07:56:26;;;;;;;17.10;5.87;;;7.60;99.90;;;;;;5097630;28;20911;-64
2024/02/11 07:58:53;;;;;;;12.10;5.80;;;7.70;99.90;;;;;;5110753;28;20447;-64
2024/02/11 08:01:21;;;;;;;14.50;6.13;;;7.70;99.90;;;;;;5117804;28;20780;-64
2024/02/11 08:03:49;;;;;;;12.20;6.43;;;7.70;99.90;;;;;;5118162;28;20743;-64
2024/02/11 08:06:17;;;;;;;15.60;6.80;;;7.70;99.90;;;;;;5117801;28;20487;-64
2024/02/11 08:08:46;;;;;;;13.03;6.13;;;7.70;99.90;;;;;;5117712;28;20455;-64
2024/02/11 08:11:13;;;;;;;9.77;6.03;;;7.80;99.90;;;;;;5117907;28;20757;-65
2024/02/11 08:13:40;;;;;;;11.83;6.10;;;7.80;99.90;;;;;;5117880;28;20459;-64
2024/02/11 08:16:11;;;;;;;14.50;5.80;;;7.80;99.90;;;;;;5117757;28;20451;-65
2024/02/11 08:18:38;;;;;;;12.30;5.67;;;7.80;99.90;;;;;;5118095;28;20499;-64
2024/02/11 08:21:09;;;;;;;13.80;5.60;;;7.80;99.90;;;;;;5118179;28;20455;-64
2024/02/11 08:23:37;;;;;;;13.50;6.10;;;7.80;99.90;;;;;;5117167;28;20923;-64
2024/02/11 08:26:06;;;;;;;15.23;7.17;;;7.80;99.90;;;;;;5117052;28;20503;-63
2024/02/11 08:28:34;;;;;;;11.90;6.77;;;7.90;99.90;;;;;;5117734;28;20501;-63
2024/02/11 08:31:01;;;;;;;14.40;6.67;;;7.90;99.90;;;;;;5117174;28;20455;-65
2024/02/11 08:33:29;;;;;;;9.90;5.47;;;7.90;99.90;;;;;;5117164;28;20455;-65
2024/02/11 08:35:56;;;;;;;10.40;5.13;;;7.90;99.90;;;;;;5117184;28;20512;-64
2024/02/11 08:38:24;;;;;;;9.50;5.73;;;7.90;99.90;;;;;;5116360;28;20790;-64
2024/02/11 08:40:53;;;;;;;13.70;6.23;;;7.90;99.90;;;;;;5115630;28;20451;-64
2024/02/11 08:43:21;;;;;;;9.80;6.20;;;7.90;99.90;;;;;;5117660;28;20825;-64
2024/02/11 08:45:49;;;;;;;11.80;6.10;;;7.80;99.90;;;;;;5117415;28;20548;-63
2024/02/11 08:48:18;;;;;;;11.97;5.67;;;7.90;99.90;;;;;;5118070;28;20558;-64
2024/02/11 08:50:46;;;;;;;11.93;5.77;;;7.90;99.90;;;;;;5117848;28;20459;-64
2024/02/11 08:53:14;;;;;;;9.57;5.93;;;7.90;99.90;;;;;;5116355;28;20554;-63
2024/02/11 08:55:42;;;;;;;10.73;5.13;;;7.90;99.90;;;;;;5115697;28;20460;-65
2024/02/11 08:58:14;;;;;;;14.03;5.70;;;8.00;99.90;;;;;;5116133;28;20514;-65
2024/02/11 09:00:41;;;;;;;11.23;5.90;;;8.00;99.90;;;;;;5115952;28;20506;-64
2024/02/11 09:03:09;;;;;;;11.30;6.93;;;8.10;99.90;;;;;;5116735;28;20494;-64
2024/02/11 09:05:36;;;;;;;12.27;6.90;;;8.10;99.90;;;;;;5118804;28;20495;-64
2024/02/11 09:08:04;;;;;;;9.20;6.30;;;8.20;99.90;;;;;;5119777;28;20434;-64
2024/02/11 09:10:32;;;;;;;9.30;6.23;;;8.20;99.90;;;;;;5120891;28;20469;-65
2024/02/11 09:13:01;;;;;;;7.53;5.70;;;8.20;99.90;;;;;;5120791;28;20750;-64
2024/02/11 09:15:30;;;;;;;10.43;6.60;;;8.20;99.90;;;;;;5121097;28;20743;-64
2024/02/11 09:17:58;;;;;;;10.13;6.20;;;8.10;99.90;;;;;;5121108;28;20463;-65
2024/02/11 09:20:26;;;;;;;7.60;6.20;;;8.00;99.90;;;;;;5120743;28;20892;-64
2024/02/11 09:22:53;;;;;;;9.00;6.50;;;8.10;99.90;;;;;;5120213;27;20499;-64
2024/02/11 09:25:21;;;;;;;10.60;7.10;;;8.10;99.90;;;;;;5120013;27;20502;-64
2024/02/11 09:27:48;;;;;;;12.33;7.67;;;8.10;99.90;;;;;;5120603;28;20474;-64
2024/02/11 09:30:17;;;;;;;11.83;7.50;;;8.10;99.90;;;;;;5120745;28;20502;-64
2024/02/11 09:32:46;;;;;;;10.20;6.00;;;8.20;99.90;;;;;;5120754;28;20533;-64
2024/02/11 09:35:14;;;;;;;11.63;6.43;;;8.10;99.90;;;;;;5120552;28;20486;-64
2024/02/11 09:37:44;;;;;;;10.80;6.23;;;8.20;99.90;;;;;;5120542;28;20460;-64
2024/02/11 09:40:15;;;;;;;10.17;6.27;;;8.10;99.90;;;;;;5120235;28;20562;-64
2024/02/11 09:42:45;;;;;;;10.87;5.77;;;8.10;99.90;;;;;;5120670;28;20459;-64
2024/02/11 09:45:16;;;;;;;10.10;6.57;;;8.20;99.90;;;;;;5120142;28;20533;-64
2024/02/11 09:47:49;;;;;;;10.17;6.03;;;8.30;99.90;;;;;;5119810;28;20495;-64
2024/02/11 09:50:20;;;;;;;13.40;7.57;;;8.20;99.90;;;;;;5120459;28;20509;-64
2024/02/11 09:52:49;;;;;;;11.97;6.37;;;8.30;99.90;;;;;;5119800;28;20464;-64
2024/02/11 09:55:19;;;;;;;10.20;6.57;;;8.20;99.90;;;;;;5119410;28;20455;-62
2024/02/11 09:57:46;;;;;;;7.50;5.80;;;8.20;99.90;;;;;;5119641;28;20539;-64
2024/02/11 10:00:15;;;;;;;10.60;5.93;;;8.30;99.90;;;;;;5119536;28;20494;-65
2024/02/11 10:02:46;;;;;;;10.57;6.73;;;8.30;99.90;;;;;;5118904;28;20459;-64
2024/02/11 10:05:17;;;;;;;8.63;6.23;;;8.30;99.90;;;;;;5117531;28;20480;-65
2024/02/11 10:07:46;;;;;;;10.97;6.03;;;8.40;99.90;;;;;;5117539;28;20538;-65
2024/02/11 10:10:15;;;;;;;9.20;6.50;;;8.40;99.90;;;;;;5116889;28;20455;-64
2024/02/11 10:12:43;;;;;;;8.70;6.50;;;8.50;99.90;;;;;;5116801;28;20459;-64
2024/02/11 10:15:16;;;;;;;11.90;6.27;;;8.60;99.90;;;;;;5116101;28;20467;-66
2024/02/11 10:17:45;;;;;;;9.73;6.50;;;8.70;99.90;;;;;;5116249;28;20892;-66
2024/02/11 10:20:17;;;;;;;10.27;5.37;;;8.80;99.90;;;;;;5116825;28;20434;-64
2024/02/11 10:22:44;;;;;;;7.80;5.77;;;8.80;99.90;;;;;;5116670;28;20465;-65
2024/02/11 10:25:16;;;;;;;13.57;6.33;;;8.90;99.90;;;;;;5117679;28;20666;-65
2024/02/11 10:27:43;;;;;;;13.23;6.53;;;9.00;99.90;;;;;;5118231;27;20467;-65
2024/02/11 10:30:12;;;;;;;12.23;6.93;;;9.00;99.90;;;;;;5118192;28;20558;-65
2024/02/11 10:32:40;;;;;;;8.00;5.47;;;9.20;99.90;;;;;;5119121;28;20459;-65
2024/02/11 10:35:14;;;;;;;10.70;5.83;;;9.30;99.90;;;;;;5119298;28;20459;-65
2024/02/11 10:37:43;;;;;;;9.43;5.17;;;9.30;99.90;;;;;;5119486;28;20922;-64
2024/02/11 10:40:11;;;;;;;8.50;5.43;;;9.40;99.90;;;;;;5119699;28;20461;-64
2024/02/11 10:42:40;;;;;;;9.47;5.67;;;9.50;99.90;;;;;;5118747;28;20546;-64
2024/02/11 10:45:09;;;;;;;9.50;5.53;;;9.60;99.90;;;;;;5118696;28;20459;-64
2024/02/11 10:47:38;;;;;;;8.13;5.90;;;9.70;99.90;;;;;;5118848;28;20809;-64
2024/02/11 10:50:08;;;;;;;7.03;5.33;;;9.70;99.90;;;;;;5119101;27;20460;-64
2024/02/11 10:52:42;;;;;;;9.07;5.80;;;9.80;99.90;;;;;;5119263;28;20459;-64
2024/02/11 10:55:12;;;;;;;21.33;12.30;;;9.90;99.90;;;;;;5119140;28;20810;-65
2024/02/11 10:57:45;;;;;;;11.23;6.93;;;9.90;99.90;;;;;;5119246;28;20876;-65
2024/02/11 11:00:15;;;;;;;11.27;5.53;;;9.90;99.90;;;;;;5119152;28;20883;-64
2024/02/11 11:02:44;;;;;;;9.37;5.17;;;10.00;99.90;;;;;;5119071;28;20934;-65
2024/02/11 11:05:20;;;;;;;7.80;6.40;;;10.00;99.90;;;;;;5118682;28;20547;-64
2024/02/11 11:07:49;;;;;;;8.10;5.90;;;10.10;99.90;;;;;;5119046;28;20459;-65
2024/02/11 11:10:18;;;;;;;9.90;5.63;;;10.20;99.90;;;;;;5118077;28;20479;-64
2024/02/11 11:12:49;;;;;;;9.70;5.70;;;10.20;99.90;;;;;;5117455;28;20516;-65
2024/02/11 11:15:23;;;;;;;8.80;6.17;;;10.20;99.90;;;;;;5118049;28;20507;-64
2024/02/11 11:17:52;;;;;;;10.60;5.87;;;10.10;1.00;;;;;;5118805;28;20458;-64
2024/02/11 11:20:21;;;;;;;8.93;5.60;;;10.10;99.90;;;;;;5118677;28;20876;-64
2024/02/11 11:22:57;;;;;;;9.00;6.17;;;10.20;99.90;;;;;;5117301;28;20881;-65
2024/02/11 11:25:26;;;;;;;9.43;5.60;;;10.20;1.00;;;;;;5114661;28;20479;-65
2024/02/11 11:28:05;;;;;;;7.50;6.30;;;10.30;1.00;;;;;;5115710;28;20455;-64
2024/02/11 11:30:33;;;;;;;15.33;7.63;;;10.40;1.00;;;;;;5115908;28;20463;-64
2024/02/11 11:33:04;;;;;;;11.97;8.13;;;10.40;99.90;;;;;;5117285;28;20463;-64
2024/02/11 11:35:34;;;;;;;10.23;6.70;;;10.50;1.00;;;;;;5117651;28;20455;-64
2024/02/11 11:38:02;;;;;;;10.27;5.77;;;10.50;1.00;;;;;;5118521;28;20435;-63
2024/02/11 11:40:32;;;;;;;9.17;5.83;;;10.40;1.00;;;;;;5117854;28;20538;-64
2024/02/11 11:43:01;;;;;;;9.70;6.00;;;10.40;1.00;;;;;;5117624;28;20468;-63
2024/02/11 11:45:29;;;;;;;10.47;6.17;;;10.40;1.00;;;;;;5114885;27;20468;-64
2024/02/11 11:47:57;;;;;;;7.23;5.93;;;10.30;1.00;;;;;;5117030;28;20947;-63
2024/02/11 11:50:25;;;;;;;9.93;6.10;;;10.30;99.90;;;;;;5117342;28;20456;-64
2024/02/11 11:53:01;;;;;;;8.80;6.20;;;10.30;99.90;;;;;;5117507;28;20456;-64
2024/02/11 11:55:29;;;;;;;8.13;5.70;;;10.30;99.90;;;;;;5117118;28;20564;-63
2024/02/11 11:57:58;;;;;;;8.67;5.77;;;10.30;99.90;;;;;;5115248;28;20516;-63
2024/02/11 12:00:26;;;;;;;10.73;5.90;;;10.30;99.90;;;;;;5117308;28;20885;-63
2024/02/11 12:02:55;;;;;;;7.70;5.43;;;10.20;99.90;;;;;;5116082;28;20491;-63
2024/02/11 12:05:25;;;;;;;6.20;4.63;;;10.20;99.90;;;;;;5117357;28;20807;-66
2024/02/11 12:07:53;;;;;;;8.03;5.23;;;10.30;99.90;;;;;;5116301;28;20880;-66
2024/02/11 12:10:24;;;;;;;8.23;5.47;;;10.40;99.90;;;;;;5117621;28;20953;-65
2024/02/11 12:12:51;;;;;;;8.80;5.30;;;10.40;99.90;;;;;;5117003;28;20456;-65
2024/02/11 12:15:19;;;;;;;7.60;5.30;;;10.40;99.90;;;;;;5117021;28;20485;-65
2024/02/11 12:17:50;;;;;;;8.13;5.83;;;10.40;99.90;;;;;;5115748;28;20507;-65
2024/02/11 12:20:18;;;;;;;10.53;5.60;;;10.40;99.90;;;;;;5116599;28;20546;-65
2024/02/11 12:22:46;;;;;;;10.43;5.53;;;10.40;99.90;;;;;;5116710;28;20513;-66
2024/02/11 12:25:20;;;;;;;6.43;5.37;;;10.30;99.90;;;;;;5116308;28;20483;-65
2024/02/11 12:27:51;;;;;;;9.57;5.50;;;10.40;99.90;;;;;;5117444;28;20553;-65
2024/02/11 12:30:24;;;;;;;7.07;5.47;;;10.30;99.90;;;;;;5117035;28;20928;-65
2024/02/11 12:32:52;;;;;;;9.00;5.03;;;10.30;99.90;;;;;;5117032;28;20499;-65
2024/02/11 12:35:29;;;;;;;6.27;4.90;;;10.30;99.90;;;;;;5117423;28;20942;-65
2024/02/11 12:37:58;;;;;;;7.47;5.70;;;10.30;99.90;;;;;;5120263;28;20485;-64
2024/02/11 12:40:26;;;;;;;9.23;5.40;;;10.20;99.90;;;;;;5121613;28;20559;-65
2024/02/11 12:43:00;;;;;;;9.43;6.17;;;10.20;99.90;;;;;;5121146;28;20463;-66
2024/02/11 12:45:28;;;;;;;7.37;5.53;;;10.20;99.90;;;;;;5120970;28;20542;-65
2024/02/11 12:47:56;;;;;;;6.87;5.07;;;10.30;99.90;;;;;;5121140;28;20491;-65
2024/02/11 12:50:24;;;;;;;6.53;5.00;;;10.50;99.90;;;;;;5121274;28;20524;-65
2024/02/11 12:52:52;;;;;;;5.87;5.23;;;10.80;99.50;;;;;;5120693;28;20554;-65
2024/02/11 12:55:21;;;;;;;7.93;5.10;;;11.10;99.90;;;;;;5120889;28;20695;-65